Etusivu
METAR-TAF:

METAR-TAF

Lentoasemat :

Skiáthoksen lentoasema

Skiathos, Kreikka

Leveyspiiri: 39-11N, Pituuspiiri: 023-30E, korkeus merenpinnasta: 15 m

Tämänhetkinen sää

Tämä raportti tehtiin 11 tuntia ja 0 minuuttia sitten, kello 18.20 UTC
Tuuli 5 kn pohjoisen/luoteesta
Lämpötila 17°C
Kosteus 63%
Ilmanpaine 1007 hPa
Näkyvyys 10 km tai enemmän
Hajanaisia pilviä 3000 ft:n korkeudessa

METAR: LGSK 181820Z 33005KT 9999 SCT030 17/10 Q1007

Aika: 08:20 (05:20 UTC)

Sääennuste

Tämä raportti tehtiin 3 tuntia ja 20 minuuttia sitten, kello 02.00 UTC
Ennuste voimassa 19. päivästä klo 03 UTC - 19. päivään klo 12 UTC
Tuuli 10 kn pohjoisesta
Näkyvyys 10 km tai enemmän
Muutamia pilviä 2000 ft:n korkeudessa

TAF: LGSK 190200Z 1903/1912 36010KT 9999 FEW020

Säähavainnot ja -ennusteet yli 4000 lentoasemalta (METAR- ja TAF-raportit).

Käytössä olevat sääasemat on merkitty karttaan keltaisilla ja punaisilla pisteillä.

Aseta hiiri pisteen päälle nähdäksesi sääaseman nimen.

Klikkaa sitten nähdäksesi säähavainnot ja -ennusteet.

Kartan vaihtaminen: klikkaa mustalla rastilla varustettuja vihreitä pisteitä, niin voit zoomata sisään; viivalla varustettua vihreää pistettä, niin voit zoomata ulos tai vihreitä nuolia, niin pääset viereisille kartoille.


METAR-TAF: